sensor_id;sensor_type;location;lat;lon;timestamp;temperature;humidity
6377;DHT22;3221;48.858;10.128;2023-03-14T00:01:09;9.40;99.90
6377;DHT22;3221;48.858;10.128;2023-03-14T00:03:36;9.20;99.90
6377;DHT22;3221;48.858;10.128;2023-03-14T00:06:04;9.20;99.90
6377;DHT22;3221;48.858;10.128;2023-03-14T00:08:31;9.10;99.90
6377;DHT22;3221;48.858;10.128;2023-03-14T00:10:58;9.00;99.90
6377;DHT22;3221;48.858;10.128;2023-03-14T00:13:29;8.90;99.90
6377;DHT22;3221;48.858;10.128;2023-03-14T00:16:04;8.90;99.90
6377;DHT22;3221;48.858;10.128;2023-03-14T00:18:32;8.90;99.90
6377;DHT22;3221;48.858;10.128;2023-03-14T00:21:01;8.90;99.90
6377;DHT22;3221;48.858;10.128;2023-03-14T00:23:29;8.80;99.90
6377;DHT22;3221;48.858;10.128;2023-03-14T00:26:05;8.70;99.90
6377;DHT22;3221;48.858;10.128;2023-03-14T00:28:32;8.60;99.90
6377;DHT22;3221;48.858;10.128;2023-03-14T00:31:02;8.60;99.90
6377;DHT22;3221;48.858;10.128;2023-03-14T00:33:29;8.60;99.90
6377;DHT22;3221;48.858;10.128;2023-03-14T00:36:01;8.60;99.90
6377;DHT22;3221;48.858;10.128;2023-03-14T00:38:30;8.60;99.90
6377;DHT22;3221;48.858;10.128;2023-03-14T00:40:57;8.60;99.90
6377;DHT22;3221;48.858;10.128;2023-03-14T00:43:25;8.50;99.90
6377;DHT22;3221;48.858;10.128;2023-03-14T00:45:53;8.50;99.90
6377;DHT22;3221;48.858;10.128;2023-03-14T00:48:20;8.50;99.90
6377;DHT22;3221;48.858;10.128;2023-03-14T00:50:47;8.50;99.90
6377;DHT22;3221;48.858;10.128;2023-03-14T00:53:15;8.50;99.90
6377;DHT22;3221;48.858;10.128;2023-03-14T00:55:42;8.40;99.90
6377;DHT22;3221;48.858;10.128;2023-03-14T00:58:11;8.50;99.90
6377;DHT22;3221;48.858;10.128;2023-03-14T01:00:38;8.60;99.90
6377;DHT22;3221;48.858;10.128;2023-03-14T01:03:05;8.60;99.90
6377;DHT22;3221;48.858;10.128;2023-03-14T01:05:33;8.60;99.90
6377;DHT22;3221;48.858;10.128;2023-03-14T01:08:00;8.50;99.90
6377;DHT22;3221;48.858;10.128;2023-03-14T01:10:27;8.50;99.90
6377;DHT22;3221;48.858;10.128;2023-03-14T01:12:54;8.60;99.90
6377;DHT22;3221;48.858;10.128;2023-03-14T01:15:20;8.60;99.90
6377;DHT22;3221;48.858;10.128;2023-03-14T01:17:47;8.70;99.90
6377;DHT22;3221;48.858;10.128;2023-03-14T01:20:15;8.70;99.90
6377;DHT22;3221;48.858;10.128;2023-03-14T01:22:43;8.70;99.90
6377;DHT22;3221;48.858;10.128;2023-03-14T01:25:13;8.80;99.90
6377;DHT22;3221;48.858;10.128;2023-03-14T01:27:40;8.80;99.90
6377;DHT22;3221;48.858;10.128;2023-03-14T01:30:09;8.80;99.90
6377;DHT22;3221;48.858;10.128;2023-03-14T01:32:37;8.80;99.90
6377;DHT22;3221;48.858;10.128;2023-03-14T01:35:04;8.80;99.90
6377;DHT22;3221;48.858;10.128;2023-03-14T01:37:32;8.80;99.90
6377;DHT22;3221;48.858;10.128;2023-03-14T01:39:59;8.80;99.90
6377;DHT22;3221;48.858;10.128;2023-03-14T01:42:25;8.80;99.90
6377;DHT22;3221;48.858;10.128;2023-03-14T01:44:58;8.80;99.90
6377;DHT22;3221;48.858;10.128;2023-03-14T01:47:25;8.80;99.90
6377;DHT22;3221;48.858;10.128;2023-03-14T01:52:29;8.80;99.90
6377;DHT22;3221;48.858;10.128;2023-03-14T01:55:04;8.90;99.90
6377;DHT22;3221;48.858;10.128;2023-03-14T01:57:37;8.90;99.90
6377;DHT22;3221;48.858;10.128;2023-03-14T02:00:09;8.80;99.90
6377;DHT22;3221;48.858;10.128;2023-03-14T02:02:55;8.80;99.90
6377;DHT22;3221;48.858;10.128;2023-03-14T02:05:25;8.80;99.90
6377;DHT22;3221;48.858;10.128;2023-03-14T02:07:58;8.80;99.90
6377;DHT22;3221;48.858;10.128;2023-03-14T02:10:32;8.70;99.90
6377;DHT22;3221;48.858;10.128;2023-03-14T02:13:04;8.70;99.90
6377;DHT22;3221;48.858;10.128;2023-03-14T02:15:51;8.80;99.90
6377;DHT22;3221;48.858;10.128;2023-03-14T02:18:37;8.70;99.90
6377;DHT22;3221;48.858;10.128;2023-03-14T02:21:45;8.70;99.90
6377;DHT22;3221;48.858;10.128;2023-03-14T02:27:15;8.70;99.90
6377;DHT22;3221;48.858;10.128;2023-03-14T02:29:59;8.70;99.90
6377;DHT22;3221;48.858;10.128;2023-03-14T02:32:30;8.70;99.90
6377;DHT22;3221;48.858;10.128;2023-03-14T02:35:03;8.70;99.90
6377;DHT22;3221;48.858;10.128;2023-03-14T02:37:37;8.70;99.90
6377;DHT22;3221;48.858;10.128;2023-03-14T02:40:05;8.60;99.90
6377;DHT22;3221;48.858;10.128;2023-03-14T02:42:34;8.60;99.90
6377;DHT22;3221;48.858;10.128;2023-03-14T02:47:44;8.60;99.90
6377;DHT22;3221;48.858;10.128;2023-03-14T02:50:18;8.50;99.90
6377;DHT22;3221;48.858;10.128;2023-03-14T02:52:46;8.60;99.90
6377;DHT22;3221;48.858;10.128;2023-03-14T02:55:13;8.50;99.90
6377;DHT22;3221;48.858;10.128;2023-03-14T02:57:43;8.50;99.90
6377;DHT22;3221;48.858;10.128;2023-03-14T03:00:10;8.50;99.90
6377;DHT22;3221;48.858;10.128;2023-03-14T03:02:38;8.50;99.90
6377;DHT22;3221;48.858;10.128;2023-03-14T03:05:05;8.70;99.90
6377;DHT22;3221;48.858;10.128;2023-03-14T03:07:31;8.60;99.90
6377;DHT22;3221;48.858;10.128;2023-03-14T03:09:59;8.50;99.90
6377;DHT22;3221;48.858;10.128;2023-03-14T03:12:25;8.50;99.90
6377;DHT22;3221;48.858;10.128;2023-03-14T03:14:52;8.50;99.90
6377;DHT22;3221;48.858;10.128;2023-03-14T03:17:19;8.50;99.90
6377;DHT22;3221;48.858;10.128;2023-03-14T03:19:46;8.50;99.90
6377;DHT22;3221;48.858;10.128;2023-03-14T03:22:13;8.50;99.90
6377;DHT22;3221;48.858;10.128;2023-03-14T03:24:40;8.50;99.90
6377;DHT22;3221;48.858;10.128;2023-03-14T03:27:07;8.40;99.90
6377;DHT22;3221;48.858;10.128;2023-03-14T03:29:34;8.40;99.90
6377;DHT22;3221;48.858;10.128;2023-03-14T03:32:01;8.40;99.90
6377;DHT22;3221;48.858;10.128;2023-03-14T03:34:28;8.40;99.90
6377;DHT22;3221;48.858;10.128;2023-03-14T03:36:56;8.40;99.90
6377;DHT22;3221;48.858;10.128;2023-03-14T03:39:26;8.30;99.90
6377;DHT22;3221;48.858;10.128;2023-03-14T03:41:53;8.30;99.90
6377;DHT22;3221;48.858;10.128;2023-03-14T03:44:20;8.30;99.90
6377;DHT22;3221;48.858;10.128;2023-03-14T03:46:47;8.30;99.90
6377;DHT22;3221;48.858;10.128;2023-03-14T03:49:14;8.30;99.90
6377;DHT22;3221;48.858;10.128;2023-03-14T03:51:41;8.30;99.90
6377;DHT22;3221;48.858;10.128;2023-03-14T03:54:08;8.30;99.90
6377;DHT22;3221;48.858;10.128;2023-03-14T03:56:35;8.40;99.90
6377;DHT22;3221;48.858;10.128;2023-03-14T03:59:01;8.40;99.90
6377;DHT22;3221;48.858;10.128;2023-03-14T04:01:28;8.40;99.90
6377;DHT22;3221;48.858;10.128;2023-03-14T04:03:58;8.50;99.90
6377;DHT22;3221;48.858;10.128;2023-03-14T04:06:26;8.50;99.90
6377;DHT22;3221;48.858;10.128;2023-03-14T04:08:56;8.50;99.90
6377;DHT22;3221;48.858;10.128;2023-03-14T04:11:45;8.40;99.90
6377;DHT22;3221;48.858;10.128;2023-03-14T04:14:25;8.40;99.90
6377;DHT22;3221;48.858;10.128;2023-03-14T04:17:01;8.30;99.90
6377;DHT22;3221;48.858;10.128;2023-03-14T04:19:29;8.30;99.90
6377;DHT22;3221;48.858;10.128;2023-03-14T04:21:55;8.30;99.90
6377;DHT22;3221;48.858;10.128;2023-03-14T04:24:25;8.30;99.90
6377;DHT22;3221;48.858;10.128;2023-03-14T04:26:52;8.20;99.90
6377;DHT22;3221;48.858;10.128;2023-03-14T04:29:19;8.20;99.90
6377;DHT22;3221;48.858;10.128;2023-03-14T04:31:47;8.20;99.90
6377;DHT22;3221;48.858;10.128;2023-03-14T04:34:14;8.20;99.90
6377;DHT22;3221;48.858;10.128;2023-03-14T04:36:49;8.20;99.90
6377;DHT22;3221;48.858;10.128;2023-03-14T04:39:20;8.20;99.90
6377;DHT22;3221;48.858;10.128;2023-03-14T04:41:54;8.20;99.90
6377;DHT22;3221;48.858;10.128;2023-03-14T04:44:21;8.30;99.90
6377;DHT22;3221;48.858;10.128;2023-03-14T04:46:51;8.30;99.90
6377;DHT22;3221;48.858;10.128;2023-03-14T04:49:18;8.40;99.90
6377;DHT22;3221;48.858;10.128;2023-03-14T04:51:45;8.40;99.90
6377;DHT22;3221;48.858;10.128;2023-03-14T04:54:12;8.30;99.90
6377;DHT22;3221;48.858;10.128;2023-03-14T04:56:39;8.30;99.90
6377;DHT22;3221;48.858;10.128;2023-03-14T04:59:07;8.30;99.90
6377;DHT22;3221;48.858;10.128;2023-03-14T05:01:36;8.30;99.90
6377;DHT22;3221;48.858;10.128;2023-03-14T05:04:20;8.30;99.90
6377;DHT22;3221;48.858;10.128;2023-03-14T05:07:13;8.20;99.90
6377;DHT22;3221;48.858;10.128;2023-03-14T05:09:54;8.20;99.90
6377;DHT22;3221;48.858;10.128;2023-03-14T05:12:43;8.10;99.90
6377;DHT22;3221;48.858;10.128;2023-03-14T05:15:29;8.10;99.90
6377;DHT22;3221;48.858;10.128;2023-03-14T05:18:17;7.90;99.90
6377;DHT22;3221;48.858;10.128;2023-03-14T05:21:03;8.10;99.90
6377;DHT22;3221;48.858;10.128;2023-03-14T05:23:49;8.10;99.90
6377;DHT22;3221;48.858;10.128;2023-03-14T05:26:49;8.20;99.90
6377;DHT22;3221;48.858;10.128;2023-03-14T05:29:24;8.10;99.90
6377;DHT22;3221;48.858;10.128;2023-03-14T05:32:20;8.10;99.90
6377;DHT22;3221;48.858;10.128;2023-03-14T05:35:19;8.20;99.90
6377;DHT22;3221;48.858;10.128;2023-03-14T05:38:06;8.10;99.90
6377;DHT22;3221;48.858;10.128;2023-03-14T05:40:53;8.00;99.90
6377;DHT22;3221;48.858;10.128;2023-03-14T05:43:41;8.10;99.90
6377;DHT22;3221;48.858;10.128;2023-03-14T05:46:37;8.10;99.90
6377;DHT22;3221;48.858;10.128;2023-03-14T05:49:29;8.10;99.90
6377;DHT22;3221;48.858;10.128;2023-03-14T05:51:56;8.10;99.90
6377;DHT22;3221;48.858;10.128;2023-03-14T05:54:41;8.10;99.90
6377;DHT22;3221;48.858;10.128;2023-03-14T05:57:27;8.00;99.90
6377;DHT22;3221;48.858;10.128;2023-03-14T06:00:17;7.90;99.90
6377;DHT22;3221;48.858;10.128;2023-03-14T06:03:01;7.90;99.90
6377;DHT22;3221;48.858;10.128;2023-03-14T06:05:32;7.90;99.90
6377;DHT22;3221;48.858;10.128;2023-03-14T06:08:00;7.90;99.90
6377;DHT22;3221;48.858;10.128;2023-03-14T06:10:30;7.90;99.90
6377;DHT22;3221;48.858;10.128;2023-03-14T06:12:57;7.90;99.90
6377;DHT22;3221;48.858;10.128;2023-03-14T06:15:24;8.00;99.90
6377;DHT22;3221;48.858;10.128;2023-03-14T06:17:56;8.00;99.90
6377;DHT22;3221;48.858;10.128;2023-03-14T06:20:24;8.00;99.90
6377;DHT22;3221;48.858;10.128;2023-03-14T06:22:52;8.00;99.90
6377;DHT22;3221;48.858;10.128;2023-03-14T06:25:19;8.00;99.90
6377;DHT22;3221;48.858;10.128;2023-03-14T06:27:47;8.00;99.90
6377;DHT22;3221;48.858;10.128;2023-03-14T06:30:15;8.00;99.90
6377;DHT22;3221;48.858;10.128;2023-03-14T06:32:44;7.90;99.90
6377;DHT22;3221;48.858;10.128;2023-03-14T06:35:13;7.90;99.90
6377;DHT22;3221;48.858;10.128;2023-03-14T06:37:42;7.90;99.90
6377;DHT22;3221;48.858;10.128;2023-03-14T06:40:10;8.00;99.90
6377;DHT22;3221;48.858;10.128;2023-03-14T06:42:49;7.90;99.90
6377;DHT22;3221;48.858;10.128;2023-03-14T06:45:17;7.80;99.90
6377;DHT22;3221;48.858;10.128;2023-03-14T06:47:44;7.80;99.90
6377;DHT22;3221;48.858;10.128;2023-03-14T06:50:12;7.70;99.90
6377;DHT22;3221;48.858;10.128;2023-03-14T06:52:39;7.80;99.90
6377;DHT22;3221;48.858;10.128;2023-03-14T06:55:16;7.70;99.90
6377;DHT22;3221;48.858;10.128;2023-03-14T06:57:43;7.80;99.90
6377;DHT22;3221;48.858;10.128;2023-03-14T07:00:12;7.80;99.90
6377;DHT22;3221;48.858;10.128;2023-03-14T07:02:39;7.90;99.90
6377;DHT22;3221;48.858;10.128;2023-03-14T07:05:20;7.90;99.90
6377;DHT22;3221;48.858;10.128;2023-03-14T07:07:47;7.90;99.90
6377;DHT22;3221;48.858;10.128;2023-03-14T07:10:14;7.80;99.90
6377;DHT22;3221;48.858;10.128;2023-03-14T07:12:41;7.90;99.90
6377;DHT22;3221;48.858;10.128;2023-03-14T07:15:08;8.00;99.90
6377;DHT22;3221;48.858;10.128;2023-03-14T07:17:44;8.00;99.90
6377;DHT22;3221;48.858;10.128;2023-03-14T07:20:11;7.90;99.90
6377;DHT22;3221;48.858;10.128;2023-03-14T07:22:39;7.90;99.90
6377;DHT22;3221;48.858;10.128;2023-03-14T07:25:06;7.90;99.90
6377;DHT22;3221;48.858;10.128;2023-03-14T07:27:36;8.00;99.90
6377;DHT22;3221;48.858;10.128;2023-03-14T07:30:03;8.00;99.90
6377;DHT22;3221;48.858;10.128;2023-03-14T07:32:30;8.00;99.90
6377;DHT22;3221;48.858;10.128;2023-03-14T07:34:58;8.00;99.90
6377;DHT22;3221;48.858;10.128;2023-03-14T07:37:25;8.00;99.90
6377;DHT22;3221;48.858;10.128;2023-03-14T07:39:52;8.00;99.90
6377;DHT22;3221;48.858;10.128;2023-03-14T07:42:22;8.00;99.90
6377;DHT22;3221;48.858;10.128;2023-03-14T07:44:59;8.10;99.90
6377;DHT22;3221;48.858;10.128;2023-03-14T07:47:26;8.10;99.90
6377;DHT22;3221;48.858;10.128;2023-03-14T07:49:52;8.20;99.90
6377;DHT22;3221;48.858;10.128;2023-03-14T07:52:19;8.30;99.90
6377;DHT22;3221;48.858;10.128;2023-03-14T07:54:46;8.30;99.90
6377;DHT22;3221;48.858;10.128;2023-03-14T07:57:12;8.30;99.90
6377;DHT22;3221;48.858;10.128;2023-03-14T07:59:39;8.30;99.90
6377;DHT22;3221;48.858;10.128;2023-03-14T08:02:11;8.20;99.90
6377;DHT22;3221;48.858;10.128;2023-03-14T08:04:39;8.20;99.90
6377;DHT22;3221;48.858;10.128;2023-03-14T08:07:06;8.20;99.90
6377;DHT22;3221;48.858;10.128;2023-03-14T08:09:33;8.30;99.90
6377;DHT22;3221;48.858;10.128;2023-03-14T08:12:00;8.30;99.90
6377;DHT22;3221;48.858;10.128;2023-03-14T08:14:27;8.30;99.90
6377;DHT22;3221;48.858;10.128;2023-03-14T08:16:55;8.40;99.90
6377;DHT22;3221;48.858;10.128;2023-03-14T08:19:22;8.40;99.90
6377;DHT22;3221;48.858;10.128;2023-03-14T08:21:49;8.50;99.90
6377;DHT22;3221;48.858;10.128;2023-03-14T08:24:16;8.50;99.90
6377;DHT22;3221;48.858;10.128;2023-03-14T08:26:42;8.50;99.90
6377;DHT22;3221;48.858;10.128;2023-03-14T08:29:09;8.60;99.90
6377;DHT22;3221;48.858;10.128;2023-03-14T08:31:36;8.50;99.90
6377;DHT22;3221;48.858;10.128;2023-03-14T08:34:03;8.60;99.90
6377;DHT22;3221;48.858;10.128;2023-03-14T08:36:30;8.60;99.90
6377;DHT22;3221;48.858;10.128;2023-03-14T08:38:57;8.50;99.90
6377;DHT22;3221;48.858;10.128;2023-03-14T08:41:24;8.60;99.90
6377;DHT22;3221;48.858;10.128;2023-03-14T08:43:51;8.60;99.90
6377;DHT22;3221;48.858;10.128;2023-03-14T08:46:18;8.60;99.90
6377;DHT22;3221;48.858;10.128;2023-03-14T08:48:45;8.60;99.90
6377;DHT22;3221;48.858;10.128;2023-03-14T08:51:13;8.60;99.90
6377;DHT22;3221;48.858;10.128;2023-03-14T08:53:41;8.60;99.90
6377;DHT22;3221;48.858;10.128;2023-03-14T08:56:08;8.70;99.90
6377;DHT22;3221;48.858;10.128;2023-03-14T08:58:37;8.60;99.90
6377;DHT22;3221;48.858;10.128;2023-03-14T09:01:06;8.70;99.90
6377;DHT22;3221;48.858;10.128;2023-03-14T09:03:34;8.60;99.90
6377;DHT22;3221;48.858;10.128;2023-03-14T09:06:09;8.60;99.90
6377;DHT22;3221;48.858;10.128;2023-03-14T09:08:36;8.60;99.90
6377;DHT22;3221;48.858;10.128;2023-03-14T09:11:07;8.60;99.90
6377;DHT22;3221;48.858;10.128;2023-03-14T09:13:35;8.70;99.90
6377;DHT22;3221;48.858;10.128;2023-03-14T09:16:03;8.70;99.90
6377;DHT22;3221;48.858;10.128;2023-03-14T09:18:30;8.70;99.90
6377;DHT22;3221;48.858;10.128;2023-03-14T09:20:57;8.70;99.90
6377;DHT22;3221;48.858;10.128;2023-03-14T09:23:24;8.80;99.90
6377;DHT22;3221;48.858;10.128;2023-03-14T09:25:55;8.80;99.90
6377;DHT22;3221;48.858;10.128;2023-03-14T09:28:22;8.80;99.90
6377;DHT22;3221;48.858;10.128;2023-03-14T09:30:49;8.80;99.90
6377;DHT22;3221;48.858;10.128;2023-03-14T09:33:17;8.90;99.90
6377;DHT22;3221;48.858;10.128;2023-03-14T09:35:43;9.00;99.90
6377;DHT22;3221;48.858;10.128;2023-03-14T09:38:10;9.00;99.90
6377;DHT22;3221;48.858;10.128;2023-03-14T09:40:38;9.00;99.90
6377;DHT22;3221;48.858;10.128;2023-03-14T09:43:05;9.00;99.90
6377;DHT22;3221;48.858;10.128;2023-03-14T09:45:36;9.00;99.90
6377;DHT22;3221;48.858;10.128;2023-03-14T09:48:04;9.00;99.90
6377;DHT22;3221;48.858;10.128;2023-03-14T09:50:59;9.20;99.90
6377;DHT22;3221;48.858;10.128;2023-03-14T09:53:41;9.10;99.90
6377;DHT22;3221;48.858;10.128;2023-03-14T09:56:13;9.10;99.90
6377;DHT22;3221;48.858;10.128;2023-03-14T09:58:45;9.20;99.90
6377;DHT22;3221;48.858;10.128;2023-03-14T10:01:17;9.20;99.90
6377;DHT22;3221;48.858;10.128;2023-03-14T10:03:47;9.20;99.90
6377;DHT22;3221;48.858;10.128;2023-03-14T10:06:15;9.20;99.90
6377;DHT22;3221;48.858;10.128;2023-03-14T10:08:43;9.20;99.90
6377;DHT22;3221;48.858;10.128;2023-03-14T10:11:15;9.30;99.90
6377;DHT22;3221;48.858;10.128;2023-03-14T10:16:33;9.20;99.90
6377;DHT22;3221;48.858;10.128;2023-03-14T10:19:06;9.30;99.90
6377;DHT22;3221;48.858;10.128;2023-03-14T10:21:48;9.20;99.90
6377;DHT22;3221;48.858;10.128;2023-03-14T10:26:53;9.30;99.90
6377;DHT22;3221;48.858;10.128;2023-03-14T10:29:21;9.30;99.90
6377;DHT22;3221;48.858;10.128;2023-03-14T10:34:31;9.40;99.90
6377;DHT22;3221;48.858;10.128;2023-03-14T10:40:00;9.60;99.90
6377;DHT22;3221;48.858;10.128;2023-03-14T10:42:34;9.70;99.90
6377;DHT22;3221;48.858;10.128;2023-03-14T10:45:22;9.60;99.90
6377;DHT22;3221;48.858;10.128;2023-03-14T10:47:51;9.60;99.90
6377;DHT22;3221;48.858;10.128;2023-03-14T10:50:30;9.80;99.90
6377;DHT22;3221;48.858;10.128;2023-03-14T10:53:01;9.80;99.90
6377;DHT22;3221;48.858;10.128;2023-03-14T10:55:43;9.90;99.90
6377;DHT22;3221;48.858;10.128;2023-03-14T10:58:23;9.80;99.90
6377;DHT22;3221;48.858;10.128;2023-03-14T11:03:26;9.90;99.90
6377;DHT22;3221;48.858;10.128;2023-03-14T11:11:24;9.90;99.90
6377;DHT22;3221;48.858;10.128;2023-03-14T11:14:12;9.90;99.90
6377;DHT22;3221;48.858;10.128;2023-03-14T11:17:05;9.90;99.90
6377;DHT22;3221;48.858;10.128;2023-03-14T11:19:53;9.90;99.90
6377;DHT22;3221;48.858;10.128;2023-03-14T11:22:36;10.00;99.90
6377;DHT22;3221;48.858;10.128;2023-03-14T11:25:29;10.00;99.90
6377;DHT22;3221;48.858;10.128;2023-03-14T11:28:16;10.00;99.90
6377;DHT22;3221;48.858;10.128;2023-03-14T11:30:50;10.00;99.90
6377;DHT22;3221;48.858;10.128;2023-03-14T11:33:26;10.00;99.90
6377;DHT22;3221;48.858;10.128;2023-03-14T11:36:08;10.00;99.90
6377;DHT22;3221;48.858;10.128;2023-03-14T11:38:44;10.10;99.90
6377;DHT22;3221;48.858;10.128;2023-03-14T11:41:16;10.10;99.90
6377;DHT22;3221;48.858;10.128;2023-03-14T11:43:48;10.20;99.90
6377;DHT22;3221;48.858;10.128;2023-03-14T11:46:25;10.20;99.90
6377;DHT22;3221;48.858;10.128;2023-03-14T11:48:58;10.10;99.90
6377;DHT22;3221;48.858;10.128;2023-03-14T11:51:35;10.10;99.90
6377;DHT22;3221;48.858;10.128;2023-03-14T11:54:16;10.10;99.90
6377;DHT22;3221;48.858;10.128;2023-03-14T11:56:46;10.00;99.90
6377;DHT22;3221;48.858;10.128;2023-03-14T12:02:13;9.90;99.90
6377;DHT22;3221;48.858;10.128;2023-03-14T12:07:26;9.80;99.90
6377;DHT22;3221;48.858;10.128;2023-03-14T12:09:56;9.80;99.90
6377;DHT22;3221;48.858;10.128;2023-03-14T12:12:26;9.70;99.90
6377;DHT22;3221;48.858;10.128;2023-03-14T12:14:56;9.70;99.90
6377;DHT22;3221;48.858;10.128;2023-03-14T12:17:41;9.70;99.90
6377;DHT22;3221;48.858;10.128;2023-03-14T12:20:18;9.70;99.90
6377;DHT22;3221;48.858;10.128;2023-03-14T12:22:54;9.60;99.90
6377;DHT22;3221;48.858;10.128;2023-03-14T12:25:24;9.60;99.90
6377;DHT22;3221;48.858;10.128;2023-03-14T12:30:39;9.50;99.90
6377;DHT22;3221;48.858;10.128;2023-03-14T12:35:37;9.50;99.90
6377;DHT22;3221;48.858;10.128;2023-03-14T12:41:26;9.50;99.90
6377;DHT22;3221;48.858;10.128;2023-03-14T12:43:54;9.40;99.90
6377;DHT22;3221;48.858;10.128;2023-03-14T12:46:26;9.40;99.90
6377;DHT22;3221;48.858;10.128;2023-03-14T12:51:38;9.40;99.90
6377;DHT22;3221;48.858;10.128;2023-03-14T12:54:27;9.40;99.90
6377;DHT22;3221;48.858;10.128;2023-03-14T12:59:42;9.30;99.90
6377;DHT22;3221;48.858;10.128;2023-03-14T13:04:50;9.20;99.90
6377;DHT22;3221;48.858;10.128;2023-03-14T13:07:34;9.20;99.90
6377;DHT22;3221;48.858;10.128;2023-03-14T13:11:02;9.20;99.90
6377;DHT22;3221;48.858;10.128;2023-03-14T13:13:22;9.20;99.90
6377;DHT22;3221;48.858;10.128;2023-03-14T13:15:54;9.20;99.90
6377;DHT22;3221;48.858;10.128;2023-03-14T13:18:36;9.10;99.90
6377;DHT22;3221;48.858;10.128;2023-03-14T13:21:18;9.10;99.90
6377;DHT22;3221;48.858;10.128;2023-03-14T13:23:58;9.10;99.90
6377;DHT22;3221;48.858;10.128;2023-03-14T13:26:35;9.10;99.90
6377;DHT22;3221;48.858;10.128;2023-03-14T13:29:30;9.10;99.90
6377;DHT22;3221;48.858;10.128;2023-03-14T13:32:02;9.10;99.90
6377;DHT22;3221;48.858;10.128;2023-03-14T13:34:40;9.00;99.90
6377;DHT22;3221;48.858;10.128;2023-03-14T13:37:18;8.90;99.90
6377;DHT22;3221;48.858;10.128;2023-03-14T13:39:50;9.00;99.90
6377;DHT22;3221;48.858;10.128;2023-03-14T13:42:17;8.90;99.90
6377;DHT22;3221;48.858;10.128;2023-03-14T13:44:45;8.90;99.90
6377;DHT22;3221;48.858;10.128;2023-03-14T13:47:18;8.90;99.90
6377;DHT22;3221;48.858;10.128;2023-03-14T13:49:46;8.90;99.90
6377;DHT22;3221;48.858;10.128;2023-03-14T13:52:30;8.80;99.90
6377;DHT22;3221;48.858;10.128;2023-03-14T13:54:59;8.70;99.90
6377;DHT22;3221;48.858;10.128;2023-03-14T13:57:27;8.70;99.90
6377;DHT22;3221;48.858;10.128;2023-03-14T14:00:02;8.70;99.90
6377;DHT22;3221;48.858;10.128;2023-03-14T14:02:34;8.60;99.90
6377;DHT22;3221;48.858;10.128;2023-03-14T14:05:03;8.60;99.90
6377;DHT22;3221;48.858;10.128;2023-03-14T14:07:30;8.50;99.90
6377;DHT22;3221;48.858;10.128;2023-03-14T14:09:58;8.60;99.90
6377;DHT22;3221;48.858;10.128;2023-03-14T14:12:33;8.60;99.90
6377;DHT22;3221;48.858;10.128;2023-03-14T14:15:14;8.50;99.90
6377;DHT22;3221;48.858;10.128;2023-03-14T14:17:46;8.40;99.90
6377;DHT22;3221;48.858;10.128;2023-03-14T14:20:22;8.40;99.90
6377;DHT22;3221;48.858;10.128;2023-03-14T14:22:50;8.30;99.90
6377;DHT22;3221;48.858;10.128;2023-03-14T14:25:18;8.30;99.90
6377;DHT22;3221;48.858;10.128;2023-03-14T14:27:48;8.20;99.90
6377;DHT22;3221;48.858;10.128;2023-03-14T14:32:47;8.30;99.90
6377;DHT22;3221;48.858;10.128;2023-03-14T14:35:41;8.30;99.90
6377;DHT22;3221;48.858;10.128;2023-03-14T14:38:16;8.30;99.90
6377;DHT22;3221;48.858;10.128;2023-03-14T14:40:49;8.30;99.90
6377;DHT22;3221;48.858;10.128;2023-03-14T14:43:20;8.30;99.90
6377;DHT22;3221;48.858;10.128;2023-03-14T14:45:52;8.20;99.90
6377;DHT22;3221;48.858;10.128;2023-03-14T14:48:22;8.20;99.90
6377;DHT22;3221;48.858;10.128;2023-03-14T14:51:02;8.20;99.90
6377;DHT22;3221;48.858;10.128;2023-03-14T14:53:42;8.20;99.90
6377;DHT22;3221;48.858;10.128;2023-03-14T14:56:28;8.10;99.90
6377;DHT22;3221;48.858;10.128;2023-03-14T14:59:00;8.10;99.90
6377;DHT22;3221;48.858;10.128;2023-03-14T15:01:37;8.00;99.90
6377;DHT22;3221;48.858;10.128;2023-03-14T15:04:12;7.90;99.90
6377;DHT22;3221;48.858;10.128;2023-03-14T15:06:45;7.80;99.90
6377;DHT22;3221;48.858;10.128;2023-03-14T15:09:13;7.80;99.90
6377;DHT22;3221;48.858;10.128;2023-03-14T15:11:39;7.70;99.90
6377;DHT22;3221;48.858;10.128;2023-03-14T15:14:06;7.70;99.90
6377;DHT22;3221;48.858;10.128;2023-03-14T15:16:33;7.60;99.90
6377;DHT22;3221;48.858;10.128;2023-03-14T15:19:03;7.60;99.90
6377;DHT22;3221;48.858;10.128;2023-03-14T15:21:48;7.50;99.90
6377;DHT22;3221;48.858;10.128;2023-03-14T15:24:15;7.40;99.90
6377;DHT22;3221;48.858;10.128;2023-03-14T15:26:42;7.40;99.90
6377;DHT22;3221;48.858;10.128;2023-03-14T15:29:11;7.40;99.90
6377;DHT22;3221;48.858;10.128;2023-03-14T15:31:39;7.40;99.90
6377;DHT22;3221;48.858;10.128;2023-03-14T15:34:07;7.30;99.90
6377;DHT22;3221;48.858;10.128;2023-03-14T15:36:35;7.30;99.90
6377;DHT22;3221;48.858;10.128;2023-03-14T15:39:04;7.20;99.90
6377;DHT22;3221;48.858;10.128;2023-03-14T15:41:32;7.30;99.90
6377;DHT22;3221;48.858;10.128;2023-03-14T15:43:59;7.20;99.90
6377;DHT22;3221;48.858;10.128;2023-03-14T15:46:26;7.20;99.90
6377;DHT22;3221;48.858;10.128;2023-03-14T15:48:56;7.20;99.90
6377;DHT22;3221;48.858;10.128;2023-03-14T15:51:22;7.20;99.90
6377;DHT22;3221;48.858;10.128;2023-03-14T15:53:49;7.10;99.90
6377;DHT22;3221;48.858;10.128;2023-03-14T15:56:19;7.10;99.90
6377;DHT22;3221;48.858;10.128;2023-03-14T15:58:46;7.10;99.90
6377;DHT22;3221;48.858;10.128;2023-03-14T16:01:14;7.10;99.90
6377;DHT22;3221;48.858;10.128;2023-03-14T16:03:45;7.00;99.90
6377;DHT22;3221;48.858;10.128;2023-03-14T16:06:12;7.00;99.90
6377;DHT22;3221;48.858;10.128;2023-03-14T16:08:40;7.00;99.90
6377;DHT22;3221;48.858;10.128;2023-03-14T16:11:07;6.90;99.90
6377;DHT22;3221;48.858;10.128;2023-03-14T16:13:33;6.90;99.90
6377;DHT22;3221;48.858;10.128;2023-03-14T16:16:02;7.00;99.90
6377;DHT22;3221;48.858;10.128;2023-03-14T16:18:32;7.00;99.90
6377;DHT22;3221;48.858;10.128;2023-03-14T16:21:01;7.00;99.90
6377;DHT22;3221;48.858;10.128;2023-03-14T16:23:29;6.90;99.90
6377;DHT22;3221;48.858;10.128;2023-03-14T16:25:56;6.90;99.90
6377;DHT22;3221;48.858;10.128;2023-03-14T16:28:24;6.80;99.90
6377;DHT22;3221;48.858;10.128;2023-03-14T16:30:51;6.90;99.90
6377;DHT22;3221;48.858;10.128;2023-03-14T16:33:18;6.90;99.90
6377;DHT22;3221;48.858;10.128;2023-03-14T16:35:59;6.80;99.90
6377;DHT22;3221;48.858;10.128;2023-03-14T16:38:27;6.80;99.90
6377;DHT22;3221;48.858;10.128;2023-03-14T16:41:16;6.80;99.90
6377;DHT22;3221;48.858;10.128;2023-03-14T16:43:44;6.80;99.90
6377;DHT22;3221;48.858;10.128;2023-03-14T16:46:14;6.80;99.90
6377;DHT22;3221;48.858;10.128;2023-03-14T16:48:45;6.70;99.90
6377;DHT22;3221;48.858;10.128;2023-03-14T16:51:12;6.80;99.90
6377;DHT22;3221;48.858;10.128;2023-03-14T16:53:39;6.70;99.90
6377;DHT22;3221;48.858;10.128;2023-03-14T16:56:06;6.80;99.90
6377;DHT22;3221;48.858;10.128;2023-03-14T16:58:34;6.70;99.90
6377;DHT22;3221;48.858;10.128;2023-03-14T17:01:09;6.70;99.90
6377;DHT22;3221;48.858;10.128;2023-03-14T17:03:41;6.70;99.90
6377;DHT22;3221;48.858;10.128;2023-03-14T17:06:17;6.70;99.90
6377;DHT22;3221;48.858;10.128;2023-03-14T17:08:44;6.60;99.90
6377;DHT22;3221;48.858;10.128;2023-03-14T17:11:11;6.50;99.90
6377;DHT22;3221;48.858;10.128;2023-03-14T17:13:38;6.60;99.90
6377;DHT22;3221;48.858;10.128;2023-03-14T17:16:06;6.50;99.90
6377;DHT22;3221;48.858;10.128;2023-03-14T17:18:33;6.50;99.90
6377;DHT22;3221;48.858;10.128;2023-03-14T17:21:00;6.50;99.90
6377;DHT22;3221;48.858;10.128;2023-03-14T17:23:29;6.40;99.90